createdAt,value
2023-05-10T00:02:05.831Z,100146.88
2023-05-10T00:04:33.772Z,100150.22
2023-05-10T00:07:01.774Z,100150.09
2023-05-10T00:09:29.933Z,100147.50
2023-05-10T00:11:59.436Z,100143.56
2023-05-10T00:14:27.590Z,100131.97
2023-05-10T00:16:56.898Z,100149.31
2023-05-10T00:19:24.834Z,100145.31
2023-05-10T00:21:52.740Z,100147.94
2023-05-10T00:24:20.673Z,100148.44
2023-05-10T00:26:48.666Z,100143.50
2023-05-10T00:29:16.532Z,100138.44
2023-05-10T00:31:44.476Z,100147.69
2023-05-10T00:34:13.772Z,100145.19
2023-05-10T00:36:41.741Z,100145.22
2023-05-10T00:39:09.698Z,100142.28
2023-05-10T00:41:37.554Z,100135.50
2023-05-10T00:44:05.673Z,100131.59
2023-05-10T00:46:33.947Z,100129.91
2023-05-10T00:49:02.017Z,100131.28
2023-05-10T00:51:32.074Z,100101.09
2023-05-10T00:54:00.687Z,100127.66
2023-05-10T00:56:30.668Z,100130.28
2023-05-10T00:58:58.746Z,100131.00
2023-05-10T01:01:27.171Z,100132.91
2023-05-10T01:03:56.573Z,100133.00
2023-05-10T01:06:24.431Z,100129.56
2023-05-10T01:08:53.834Z,100135.09
2023-05-10T01:11:21.922Z,100130.16
2023-05-10T01:13:57.734Z,100134.16
2023-05-10T01:16:26.440Z,100139.91
2023-05-10T01:18:55.156Z,100135.31
2023-05-10T01:21:29.871Z,100102.28
2023-05-10T01:24:17.290Z,100144.00
2023-05-10T01:27:17.864Z,100139.72
2023-05-10T01:30:15.305Z,100139.72
2023-05-10T01:32:51.740Z,100143.66
2023-05-10T01:35:24.993Z,100122.88
2023-05-10T01:37:59.129Z,100136.97
2023-05-10T01:40:33.671Z,100136.66
2023-05-10T01:43:04.878Z,100135.94
2023-05-10T01:45:36.369Z,100124.47
2023-05-10T01:48:12.032Z,100137.31
2023-05-10T01:50:43.866Z,100132.28
2023-05-10T01:53:13.757Z,100110.34
2023-05-10T01:55:47.257Z,100132.91
2023-05-10T01:58:21.220Z,100130.81
2023-05-10T02:00:51.995Z,100134.06
2023-05-10T02:03:24.386Z,100139.41
2023-05-10T02:05:54.311Z,100121.19
2023-05-10T02:08:24.033Z,100139.69
2023-05-10T02:10:55.825Z,100137.59
2023-05-10T02:13:25.672Z,100140.91
2023-05-10T02:15:56.726Z,100140.09
2023-05-10T02:18:27.948Z,100140.53
2023-05-10T02:20:57.583Z,100144.25
2023-05-10T02:23:27.300Z,100143.16
2023-05-10T02:25:56.984Z,100143.66
2023-05-10T02:28:26.678Z,100140.44
2023-05-10T02:30:56.678Z,100145.66
2023-05-10T02:33:27.227Z,100146.09
2023-05-10T02:35:55.497Z,100145.03
2023-05-10T02:38:24.793Z,100141.78
2023-05-10T02:40:53.233Z,100149.84
2023-05-10T02:43:24.667Z,100128.81
2023-05-10T02:45:52.716Z,100154.84
2023-05-10T02:48:20.861Z,100154.84
2023-05-10T02:50:52.927Z,100142.53
2023-05-10T02:53:24.818Z,100143.75
2023-05-10T02:55:54.803Z,100151.91
2023-05-10T02:58:23.713Z,100137.09
2023-05-10T03:00:51.735Z,100142.63
2023-05-10T03:03:19.925Z,100143.03
2023-05-10T03:05:47.902Z,100145.44
2023-05-10T03:08:17.301Z,100142.41
2023-05-10T03:11:05.970Z,100147.28
2023-05-10T03:13:41.898Z,100150.84
2023-05-10T03:16:14.313Z,100151.91
2023-05-10T03:18:47.696Z,100151.72
2023-05-10T03:21:18.655Z,100132.75
2023-05-10T03:23:52.488Z,100141.84
2023-05-10T03:26:26.450Z,100160.66
2023-05-10T03:28:55.218Z,100155.91
2023-05-10T03:31:23.544Z,100157.31
2023-05-10T03:33:52.838Z,100165.47
2023-05-10T03:36:21.583Z,100155.84
2023-05-10T03:38:50.861Z,100153.97
2023-05-10T03:41:18.795Z,100162.16
2023-05-10T03:43:46.691Z,100161.75
2023-05-10T03:46:14.616Z,100162.94
2023-05-10T03:48:42.642Z,100161.81
2023-05-10T03:51:10.700Z,100155.88
2023-05-10T03:53:38.575Z,100171.22
2023-05-10T03:56:08.204Z,100169.25
2023-05-10T03:58:36.133Z,100173.41
2023-05-10T04:01:03.992Z,100168.63
2023-05-10T04:03:31.989Z,100173.13
2023-05-10T04:06:03.376Z,100182.84
2023-05-10T04:08:31.568Z,100190.25
2023-05-10T04:11:09.137Z,100180.03
2023-05-10T04:13:37.710Z,100183.69
2023-05-10T04:16:06.391Z,100180.75
2023-05-10T04:18:34.440Z,100182.53
2023-05-10T04:21:02.645Z,100184.75
2023-05-10T04:23:30.641Z,100191.00
2023-05-10T04:26:02.725Z,100177.63
2023-05-10T04:28:32.151Z,100186.19
2023-05-10T04:31:03.880Z,100187.69
2023-05-10T04:33:31.962Z,100193.94
2023-05-10T04:35:59.971Z,100190.69
2023-05-10T04:38:28.503Z,100187.88
2023-05-10T04:40:56.485Z,100205.53
2023-05-10T04:43:24.370Z,100189.53
2023-05-10T04:45:53.646Z,100195.25
2023-05-10T04:48:21.550Z,100194.34
2023-05-10T04:50:49.429Z,100201.34
2023-05-10T04:53:17.509Z,100196.72
2023-05-10T04:55:45.497Z,100196.66
2023-05-10T04:58:13.441Z,100176.56
2023-05-10T05:00:41.642Z,100187.81
2023-05-10T05:03:11.029Z,100194.47
2023-05-10T05:05:39.081Z,100194.00
2023-05-10T05:08:07.829Z,100204.38
2023-05-10T05:10:35.989Z,100206.03
2023-05-10T05:13:04.142Z,100202.50
2023-05-10T05:15:32.188Z,100201.53
2023-05-10T05:18:00.181Z,100203.09
2023-05-10T05:20:29.519Z,100198.94
2023-05-10T05:22:57.430Z,100194.47
2023-05-10T05:25:25.384Z,100193.81
2023-05-10T05:27:53.332Z,100192.06
2023-05-10T05:30:21.458Z,100193.94
2023-05-10T05:32:49.512Z,100174.72
2023-05-10T05:35:17.645Z,100191.94
2023-05-10T05:37:47.124Z,100181.69
2023-05-10T05:40:15.578Z,100189.53
2023-05-10T05:42:43.559Z,100184.28
2023-05-10T05:45:14.074Z,100196.84
2023-05-10T05:47:42.382Z,100201.44
2023-05-10T05:50:11.398Z,100122.16
2023-05-10T05:52:39.370Z,100200.19
2023-05-10T05:55:09.384Z,100209.63
2023-05-10T05:57:37.232Z,100218.41
2023-05-10T06:00:06.170Z,100217.63
2023-05-10T06:02:34.109Z,100212.31
2023-05-10T06:05:02.088Z,100215.25
2023-05-10T06:07:30.397Z,100216.31
2023-05-10T06:09:58.352Z,100212.25
2023-05-10T06:12:27.655Z,100214.63
2023-05-10T06:14:55.632Z,100218.94
2023-05-10T06:17:23.773Z,100210.97
2023-05-10T06:19:51.738Z,100217.66
2023-05-10T06:22:19.914Z,100222.78
2023-05-10T06:24:48.012Z,100220.13
2023-05-10T06:27:15.980Z,100228.00
2023-05-10T06:29:45.422Z,100229.66
2023-05-10T06:32:13.371Z,100230.47
2023-05-10T06:34:41.387Z,100225.59
2023-05-10T06:37:09.357Z,100233.66
2023-05-10T06:39:37.855Z,100229.03
2023-05-10T06:42:06.270Z,100227.78
2023-05-10T06:44:34.338Z,100227.59
2023-05-10T06:47:03.664Z,100230.19
2023-05-10T06:49:31.599Z,100236.16
2023-05-10T06:51:59.489Z,100229.38
2023-05-10T06:54:27.552Z,100237.16
2023-05-10T06:56:55.536Z,100230.09
2023-05-10T06:59:23.718Z,100227.78
2023-05-10T07:01:51.758Z,100222.72
2023-05-10T07:04:21.141Z,100224.78
2023-05-10T07:06:50.655Z,100232.28
2023-05-10T07:09:18.758Z,100202.03
2023-05-10T07:11:46.741Z,100220.81
2023-05-10T07:14:14.704Z,100228.13
2023-05-10T07:16:42.639Z,100222.84
2023-05-10T07:19:10.633Z,100224.66
2023-05-10T07:21:41.489Z,100228.72
2023-05-10T07:24:09.521Z,100228.25
2023-05-10T07:26:37.797Z,100227.81
2023-05-10T07:29:05.713Z,100225.66
2023-05-10T07:31:33.672Z,100229.88
2023-05-10T07:34:01.622Z,100226.22
2023-05-10T07:36:29.962Z,100231.28
2023-05-10T07:38:59.543Z,100232.22
2023-05-10T07:41:27.485Z,100227.06
2023-05-10T07:43:55.789Z,100222.88
2023-05-10T07:46:24.002Z,100222.16
2023-05-10T07:48:52.155Z,100234.06
2023-05-10T07:51:20.165Z,100230.97
2023-05-10T07:53:48.145Z,100234.06
2023-05-10T07:56:26.268Z,100239.56
2023-05-10T07:58:54.343Z,100234.56
2023-05-10T08:01:22.394Z,100218.88
2023-05-10T08:03:51.730Z,100235.09
2023-05-10T08:06:20.264Z,100239.22
2023-05-10T08:08:50.444Z,100245.22
2023-05-10T08:11:18.762Z,100257.38
2023-05-10T08:13:48.666Z,100261.19
2023-05-10T08:16:16.711Z,100261.81
2023-05-10T08:18:46.637Z,100264.84
2023-05-10T08:21:14.891Z,100254.31
2023-05-10T08:23:44.729Z,100253.31
2023-05-10T08:26:12.992Z,100256.91
2023-05-10T08:28:41.016Z,100252.97
2023-05-10T08:31:10.461Z,100258.38
2023-05-10T08:33:38.488Z,100256.53
2023-05-10T08:36:06.684Z,100260.22
2023-05-10T08:38:34.990Z,100257.50
2023-05-10T08:41:04.614Z,100259.06
2023-05-10T08:43:33.638Z,100254.06
2023-05-10T08:46:03.851Z,100258.13
2023-05-10T08:48:36.523Z,100257.06
2023-05-10T08:51:05.874Z,100255.25
2023-05-10T08:53:37.495Z,100252.25
2023-05-10T08:56:06.349Z,100260.38
2023-05-10T08:58:34.478Z,100251.91
2023-05-10T09:01:03.441Z,100257.50
2023-05-10T09:03:33.726Z,100257.75
2023-05-10T09:06:01.674Z,100249.03
2023-05-10T09:08:30.502Z,100254.06
2023-05-10T09:10:58.926Z,100257.16
2023-05-10T09:13:27.257Z,100244.38
2023-05-10T09:15:55.520Z,100236.53
2023-05-10T09:18:24.042Z,100240.34
2023-05-10T09:20:54.408Z,100240.47
2023-05-10T09:23:22.436Z,100236.66
2023-05-10T09:25:50.764Z,100226.72
2023-05-10T09:28:18.665Z,100235.88
2023-05-10T09:30:56.586Z,100231.09
2023-05-10T09:33:25.081Z,100222.56
2023-05-10T09:35:55.368Z,100223.97
2023-05-10T09:38:23.788Z,100221.63
2023-05-10T09:40:56.819Z,100218.34
2023-05-10T09:43:24.701Z,100222.09
2023-05-10T09:45:52.704Z,100199.66
2023-05-10T09:48:20.678Z,100218.59
2023-05-10T09:51:00.276Z,100213.28
2023-05-10T09:53:28.290Z,100209.53
2023-05-10T09:55:56.438Z,100214.53
2023-05-10T09:58:24.433Z,100186.97
2023-05-10T10:00:53.353Z,100202.69
2023-05-10T10:03:23.625Z,100204.75
2023-05-10T10:05:52.309Z,100201.06
2023-05-10T10:08:21.844Z,100200.13
2023-05-10T10:10:52.539Z,100193.16
2023-05-10T10:13:21.164Z,100195.22
2023-05-10T10:15:52.160Z,100192.72
2023-05-10T10:18:24.531Z,100191.69
2023-05-10T10:20:52.589Z,100191.00
2023-05-10T10:23:21.839Z,100199.50
2023-05-10T10:25:50.965Z,100192.06
2023-05-10T10:28:28.284Z,100187.41
2023-05-10T10:30:58.371Z,100196.53
2023-05-10T10:33:38.480Z,100185.53
2023-05-10T10:36:07.484Z,100195.38
2023-05-10T10:38:58.968Z,100191.31
2023-05-10T10:41:35.174Z,100183.09
2023-05-10T10:44:26.032Z,100184.81
2023-05-10T10:47:01.609Z,100175.53
2023-05-10T10:49:29.620Z,100177.91
2023-05-10T10:52:17.236Z,100179.41
2023-05-10T10:54:53.019Z,100175.25
2023-05-10T10:57:22.615Z,100183.69
2023-05-10T10:59:51.057Z,100158.88
2023-05-10T11:02:46.977Z,100175.63
2023-05-10T11:05:37.164Z,100178.66
2023-05-10T11:08:14.305Z,100173.63
2023-05-10T11:10:53.976Z,100150.66
2023-05-10T11:13:31.316Z,100170.66
2023-05-10T11:15:59.975Z,100175.81
2023-05-10T11:18:29.587Z,100159.31
2023-05-10T11:21:03.803Z,100162.84
2023-05-10T11:23:33.341Z,100148.47
2023-05-10T11:26:03.062Z,100166.22
2023-05-10T11:28:30.992Z,100159.00
2023-05-10T11:30:59.137Z,100152.84
2023-05-10T11:33:27.068Z,100148.75
2023-05-10T11:35:54.953Z,100140.53
2023-05-10T11:38:22.888Z,100145.84
2023-05-10T11:40:54.411Z,100147.25
2023-05-10T11:43:29.150Z,100136.47
2023-05-10T11:45:57.204Z,100148.38
2023-05-10T11:48:25.182Z,100145.22
2023-05-10T11:50:53.835Z,100155.16
2023-05-10T11:53:23.778Z,100145.03
2023-05-10T11:55:53.336Z,100135.13
2023-05-10T11:58:24.397Z,100153.50
2023-05-10T12:00:52.649Z,100146.47
2023-05-10T12:03:20.895Z,100149.66
2023-05-10T12:05:48.956Z,100151.31
2023-05-10T12:08:18.078Z,100152.28
2023-05-10T12:10:45.984Z,100142.31
2023-05-10T12:13:15.489Z,100140.94
2023-05-10T12:15:45.578Z,100139.50
2023-05-10T12:18:14.610Z,100138.69
2023-05-10T12:20:43.147Z,100130.78
2023-05-10T12:23:15.185Z,100132.03
2023-05-10T12:25:43.062Z,100129.41
2023-05-10T12:28:11.692Z,100129.25
2023-05-10T12:30:40.412Z,100124.41
2023-05-10T12:33:15.981Z,100104.44
2023-05-10T12:35:48.791Z,100116.38
2023-05-10T12:38:31.771Z,100121.53
2023-05-10T12:41:01.412Z,100102.25
2023-05-10T12:43:29.531Z,100118.19
2023-05-10T12:45:57.971Z,100103.47
2023-05-10T12:48:27.325Z,100095.28
2023-05-10T12:50:55.257Z,100092.63
2023-05-10T12:53:23.120Z,100090.56
2023-05-10T12:55:51.035Z,100080.44
2023-05-10T12:58:31.917Z,100074.47
2023-05-10T13:01:03.646Z,100070.41
2023-05-10T13:03:33.205Z,100064.81
2023-05-10T13:06:01.266Z,100064.47
2023-05-10T13:08:30.754Z,100044.91
2023-05-10T13:10:58.709Z,100061.09
2023-05-10T13:13:27.212Z,100059.78
2023-05-10T13:15:55.216Z,100059.47
2023-05-10T13:18:23.155Z,100060.53
2023-05-10T13:20:52.544Z,100055.88
2023-05-10T13:23:20.426Z,100057.72
2023-05-10T13:25:48.347Z,100052.56
2023-05-10T13:28:16.316Z,100056.84
2023-05-10T13:30:44.444Z,100054.31
2023-05-10T13:33:12.417Z,100039.84
2023-05-10T13:35:40.475Z,100047.50
2023-05-10T13:38:10.443Z,100045.03
2023-05-10T13:40:38.365Z,100046.88
2023-05-10T13:43:06.347Z,100047.59
2023-05-10T13:45:34.290Z,100038.00
2023-05-10T13:48:02.153Z,100040.06
2023-05-10T13:50:30.103Z,100042.06
2023-05-10T13:52:58.012Z,100044.84
2023-05-10T13:56:21.016Z,100043.75
2023-05-10T13:58:50.288Z,100043.75
2023-05-10T14:01:18.305Z,100038.94
2023-05-10T14:03:46.399Z,100033.31
2023-05-10T14:06:14.386Z,100036.31
2023-05-10T14:08:42.300Z,100034.69
2023-05-10T14:11:10.430Z,100025.91
2023-05-10T14:13:38.323Z,100017.50
2023-05-10T14:16:08.533Z,100018.47
2023-05-10T14:18:36.591Z,100025.53
2023-05-10T14:21:05.006Z,100029.00
2023-05-10T14:23:33.022Z,100020.03
2023-05-10T14:26:00.997Z,100011.53
2023-05-10T14:28:29.003Z,100019.63
2023-05-10T14:30:57.129Z,99976.91
2023-05-10T14:33:26.648Z,100012.84
2023-05-10T14:35:57.596Z,100013.19
2023-05-10T14:38:25.757Z,100015.81
2023-05-10T14:40:53.624Z,100014.75
2023-05-10T14:43:21.518Z,100020.03
2023-05-10T14:45:49.452Z,100021.25
2023-05-10T14:48:18.541Z,100019.47
2023-05-10T14:50:48.167Z,100019.94
2023-05-10T14:53:36.268Z,100021.31
2023-05-10T14:56:04.177Z,100020.50
2023-05-10T14:58:34.110Z,100015.63
2023-05-10T15:01:02.467Z,100022.44
2023-05-10T15:03:30.856Z,100010.50
2023-05-10T15:06:00.645Z,100012.59
2023-05-10T15:08:28.850Z,100017.81
2023-05-10T15:10:57.336Z,100012.59
2023-05-10T15:13:25.247Z,100006.75
2023-05-10T15:15:53.376Z,100009.78
2023-05-10T15:18:21.392Z,100018.31
2023-05-10T15:20:49.337Z,100010.19
2023-05-10T15:23:18.715Z,100013.91
2023-05-10T15:25:46.694Z,100008.13
2023-05-10T15:28:14.666Z,100009.53
2023-05-10T15:30:42.602Z,100014.78
2023-05-10T15:33:10.554Z,100009.19
2023-05-10T15:35:40.561Z,100005.78
2023-05-10T15:38:08.400Z,100013.28
2023-05-10T15:40:37.679Z,100018.00
2023-05-10T15:43:06.267Z,100012.88
2023-05-10T15:45:35.219Z,100002.28
2023-05-10T15:48:05.828Z,100004.22
2023-05-10T15:50:33.830Z,100010.19
2023-05-10T15:53:01.793Z,100008.81
2023-05-10T15:55:29.849Z,100003.75
2023-05-10T15:57:59.175Z,100005.50
2023-05-10T16:00:27.174Z,99997.59
2023-05-10T16:02:55.280Z,99996.91
2023-05-10T16:05:23.443Z,99989.00
2023-05-10T16:07:51.588Z,99998.16
2023-05-10T16:10:19.701Z,99995.25
2023-05-10T16:12:47.580Z,99996.91
2023-05-10T16:15:17.123Z,100010.53
2023-05-10T16:17:45.303Z,100003.66
2023-05-10T16:20:13.398Z,100000.72
2023-05-10T16:22:41.350Z,100001.13
2023-05-10T16:25:11.013Z,99999.50
2023-05-10T16:27:40.683Z,100002.50
2023-05-10T16:30:10.079Z,99992.41
2023-05-10T16:32:39.433Z,100001.41
2023-05-10T16:35:08.589Z,99989.19
2023-05-10T16:37:36.453Z,100006.66
2023-05-10T16:40:04.853Z,100004.72
2023-05-10T16:42:32.720Z,99986.47
2023-05-10T16:45:07.284Z,100007.94
2023-05-10T16:47:35.353Z,100012.50
2023-05-10T16:50:05.886Z,100017.28
2023-05-10T16:52:34.771Z,100014.09
2023-05-10T16:55:03.351Z,100007.56
2023-05-10T16:57:32.927Z,100012.56
2023-05-10T17:00:00.996Z,100015.59
2023-05-10T17:02:29.076Z,100026.84
2023-05-10T17:04:57.108Z,100010.88
2023-05-10T17:07:28.668Z,100022.50
2023-05-10T17:09:56.749Z,100027.94
2023-05-10T17:12:24.703Z,100031.97
2023-05-10T17:14:52.799Z,100034.59
2023-05-10T17:17:20.785Z,99923.69
2023-05-10T17:19:48.865Z,100007.28
2023-05-10T17:22:16.983Z,100030.56
2023-05-10T17:24:46.986Z,100032.25
2023-05-10T17:27:15.168Z,100026.16
2023-05-10T17:29:43.055Z,100027.41
2023-05-10T17:32:11.112Z,100029.50
2023-05-10T17:34:40.096Z,100032.81
2023-05-10T17:37:10.307Z,100027.81
2023-05-10T17:39:40.115Z,100032.97
2023-05-10T17:42:09.418Z,100028.66
2023-05-10T17:44:37.248Z,100038.22
2023-05-10T17:47:06.303Z,100032.13
2023-05-10T17:49:34.243Z,100041.94
2023-05-10T17:52:02.484Z,100033.34
2023-05-10T17:54:30.429Z,100044.72
2023-05-10T17:56:59.297Z,100047.75
2023-05-10T17:59:28.683Z,100054.22
2023-05-10T18:01:56.536Z,100053.94
2023-05-10T18:04:24.531Z,100041.06
2023-05-10T18:06:55.223Z,100063.13
2023-05-10T18:09:23.155Z,100065.50
2023-05-10T18:11:51.059Z,100068.00
2023-05-10T18:14:31.960Z,100057.31
2023-05-10T18:17:06.155Z,100076.59
2023-05-10T18:19:34.152Z,100080.56
2023-05-10T18:22:02.080Z,100078.53
2023-05-10T18:24:38.949Z,100069.31
2023-05-10T18:27:08.272Z,100093.16
2023-05-10T18:29:36.343Z,100088.34
2023-05-10T18:32:06.147Z,100088.63
2023-05-10T18:34:34.498Z,100090.25
2023-05-10T18:37:07.745Z,100095.44
2023-05-10T18:39:36.022Z,100093.25
2023-05-10T18:42:05.084Z,100095.03
2023-05-10T18:44:33.064Z,100073.41
2023-05-10T18:47:00.996Z,100093.91
2023-05-10T18:49:30.292Z,100082.38
2023-05-10T18:51:58.173Z,100108.84
2023-05-10T18:54:26.784Z,100106.34
2023-05-10T18:56:54.706Z,100088.22
2023-05-10T18:59:22.926Z,100106.13
2023-05-10T19:01:51.370Z,100105.25
2023-05-10T19:04:19.489Z,100100.81
2023-05-10T19:06:48.880Z,100105.06
2023-05-10T19:09:16.791Z,100082.13
2023-05-10T19:11:44.704Z,100106.97
2023-05-10T19:14:12.639Z,100103.59
2023-05-10T19:16:42.737Z,100105.50
2023-05-10T19:19:10.868Z,100077.84
2023-05-10T19:21:40.971Z,100097.88
2023-05-10T19:24:12.472Z,100075.38
2023-05-10T19:26:40.494Z,100100.09
2023-05-10T19:29:08.434Z,100102.41
2023-05-10T19:31:36.434Z,100098.81
2023-05-10T19:34:04.638Z,100101.59
2023-05-10T19:36:33.018Z,100101.25
2023-05-10T19:39:00.956Z,100097.03
2023-05-10T19:41:30.220Z,100097.41
2023-05-10T19:43:58.135Z,100097.41
2023-05-10T19:46:26.070Z,100098.44
2023-05-10T19:48:54.094Z,100094.78
2023-05-10T19:51:22.279Z,100092.66
2023-05-10T19:53:50.304Z,100091.34
2023-05-10T19:56:18.485Z,100089.94
2023-05-10T19:58:47.769Z,100090.03
2023-05-10T20:01:15.935Z,100101.47
2023-05-10T20:03:43.980Z,100097.53
2023-05-10T20:06:12.270Z,100102.63
2023-05-10T20:08:40.155Z,100093.47
2023-05-10T20:11:08.128Z,100100.78
2023-05-10T20:13:36.143Z,100094.81
2023-05-10T20:16:06.877Z,100095.44
2023-05-10T20:18:34.937Z,100103.47
2023-05-10T20:21:02.839Z,100106.53
2023-05-10T20:23:30.740Z,100101.03
2023-05-10T20:25:59.405Z,100104.88
2023-05-10T20:28:28.312Z,100105.84
2023-05-10T20:30:57.074Z,100113.81
2023-05-10T20:33:26.463Z,100111.09
2023-05-10T20:35:54.431Z,100121.84
2023-05-10T20:38:22.711Z,100112.19
2023-05-10T20:40:50.619Z,100098.25
2023-05-10T20:43:18.915Z,100120.44
2023-05-10T20:45:46.940Z,100117.59
2023-05-10T20:48:14.881Z,100127.69
2023-05-10T20:50:44.293Z,100127.69
2023-05-10T20:53:12.165Z,100131.75
2023-05-10T20:55:40.154Z,100129.72
2023-05-10T20:58:08.079Z,100129.84
2023-05-10T21:00:35.975Z,100121.84
2023-05-10T21:03:04.033Z,100138.28
2023-05-10T21:05:32.139Z,100137.56
2023-05-10T21:08:01.373Z,100138.75
2023-05-10T21:10:29.414Z,100135.44
2023-05-10T21:12:57.517Z,100142.53
2023-05-10T21:15:25.972Z,100150.13
2023-05-10T21:17:54.303Z,100137.66
2023-05-10T21:20:23.436Z,100137.03
2023-05-10T21:22:51.428Z,100140.91
2023-05-10T21:25:20.901Z,100134.19
2023-05-10T21:27:48.872Z,100135.47
2023-05-10T21:30:17.052Z,100134.47
2023-05-10T21:32:45.160Z,100133.47
2023-05-10T21:35:13.061Z,100130.00
2023-05-10T21:37:40.941Z,100126.44
2023-05-10T21:40:09.690Z,100133.34
2023-05-10T21:42:39.046Z,100134.25
2023-05-10T21:45:07.842Z,100136.31
2023-05-10T21:47:36.389Z,100118.94
2023-05-10T21:50:04.375Z,100128.06
2023-05-10T21:52:32.273Z,100120.25
2023-05-10T21:55:00.203Z,100147.41
2023-05-10T21:57:28.039Z,100144.50
2023-05-10T21:59:57.319Z,100140.41
2023-05-10T22:02:25.508Z,100148.41
2023-05-10T22:04:53.517Z,100147.34
2023-05-10T22:07:21.382Z,100146.94
2023-05-10T22:09:49.285Z,100142.84
2023-05-10T22:12:17.186Z,100140.22
2023-05-10T22:14:45.129Z,100141.16
2023-05-10T22:17:14.484Z,100136.00
2023-05-10T22:19:42.467Z,100137.66
2023-05-10T22:22:10.909Z,100137.94
2023-05-10T22:24:38.754Z,100136.66
2023-05-10T22:27:07.080Z,100119.88
2023-05-10T22:29:35.014Z,100140.88
2023-05-10T22:32:05.690Z,100136.59
2023-05-10T22:34:35.548Z,100133.94
2023-05-10T22:37:03.902Z,100139.13
2023-05-10T22:39:31.791Z,100136.28
2023-05-10T22:41:59.741Z,100140.78
2023-05-10T22:44:27.855Z,100138.44
2023-05-10T22:46:55.854Z,100139.44
2023-05-10T22:49:23.797Z,100138.31
2023-05-10T22:51:53.031Z,100129.97
2023-05-10T22:54:20.947Z,100138.31
2023-05-10T22:56:48.894Z,100137.75
2023-05-10T22:59:16.851Z,100132.16
2023-05-10T23:01:44.735Z,100136.84
2023-05-10T23:04:12.699Z,100145.03
2023-05-10T23:06:40.794Z,100137.63
2023-05-10T23:09:10.138Z,100128.41
2023-05-10T23:11:38.037Z,100130.28
2023-05-10T23:14:06.021Z,100124.97
2023-05-10T23:16:34.150Z,100129.97
2023-05-10T23:19:02.186Z,100134.69
2023-05-10T23:21:32.214Z,100137.09
2023-05-10T23:24:00.361Z,100133.63
2023-05-10T23:26:29.647Z,100140.44
2023-05-10T23:28:57.524Z,100147.09
2023-05-10T23:31:25.621Z,100134.69
2023-05-10T23:33:53.507Z,100132.28
2023-05-10T23:36:21.435Z,100137.31
2023-05-10T23:38:49.328Z,100136.22
2023-05-10T23:41:17.237Z,100149.22
2023-05-10T23:43:46.523Z,100140.00
2023-05-10T23:46:14.543Z,100138.97
2023-05-10T23:48:42.521Z,100137.81
2023-05-10T23:51:10.509Z,100150.44
2023-05-10T23:53:38.739Z,100138.03
2023-05-10T23:56:07.501Z,100142.59
2023-05-10T23:58:35.414Z,100142.81
